»·PEaware :: N132KT KEGE-KHDN

N132KT :: KEGE-KHDN

FLIGHT INFORMATION

Flight Status: Arrived
Operator: Privately registered:
United States
More flights under this callsign
Pilot: Keith S. (1)
Aircraft: MITSUBISHI MU-2 MARQUISE
(MU2)
More flights by this aircraft type
Origin: KEGE Eagle Co Regl
United States
Destination: KHDN Yampa Valley
United States
More flights between these airports :: More routes between these airports
Route: +RLG240019 CHE
File this flight plan on PilotEdge
Remarks:
Altitude:
(Current/Filed)
16,000ft
Speed:
(Current/Filed)
320kts
Departed: 27-Oct-19 01:52 PM
Arrived: 27-Oct-19 02:22 PM
Distance/Time
Traveled:
52nm/0:30
Distance/Time
To Go:
Arrived

Flight Plot

Page will automatically refresh every two minutes.

Flight plan parsing failed; only flown route is shown


Map Options




Map Legend


Flown Route
Filed Route
Departure Airport
Arrival Airport
Navaid (VOR, NDB)
Fix

Horizontal Profiles

Position Reports

Time Latitude Longitude Heading Altitude Ground
Speed
27-Oct-19 13:31 39.641424 -106.906748 262 6549ft 0kts
27-Oct-19 13:32 39.641424 -106.906748 262 6549ft 0kts
27-Oct-19 13:33 39.641424 -106.906748 262 6549ft 0kts
27-Oct-19 13:34 39.641424 -106.906748 262 6549ft 0kts
27-Oct-19 13:35 39.641424 -106.906748 262 6549ft 0kts
27-Oct-19 13:36 39.641424 -106.906748 262 6549ft 0kts
27-Oct-19 13:37 39.641424 -106.906748 262 6549ft 0kts
27-Oct-19 13:38 39.641424 -106.906748 262 6549ft 0kts
27-Oct-19 13:39 39.641424 -106.906748 262 6549ft 0kts
27-Oct-19 13:40 39.641424 -106.906748 262 6549ft 0kts
27-Oct-19 13:41 39.641424 -106.906748 262 6549ft 0kts
27-Oct-19 13:42 39.641424 -106.906749 264 6549ft 0kts
27-Oct-19 13:43 39.641424 -106.906748 263 6549ft 0kts
27-Oct-19 13:44 39.641424 -106.906748 263 6549ft 0kts
27-Oct-19 13:45 39.641424 -106.906748 263 6549ft 0kts
27-Oct-19 13:46 39.641955 -106.906523 52 6549ft 10kts
27-Oct-19 13:47 39.643135 -106.902128 84 6549ft 18kts
27-Oct-19 13:48 39.643420 -106.900498 42 6549ft 0kts
27-Oct-19 13:49 39.643420 -106.900498 42 6549ft 0kts
27-Oct-19 13:50 39.643827 -106.900222 7 6549ft 5kts
27-Oct-19 13:51 39.642291 -106.921342 262 6639ft 157kts
27-Oct-19 13:52 39.619389 -106.976165 234 8900ft 184kts
27-Oct-19 13:53 39.628311 -107.033335 323 10839ft 206kts
27-Oct-19 13:54 39.684863 -107.059682 341 12638ft 225kts
27-Oct-19 13:55 39.742891 -107.082953 20 14528ft 228kts
27-Oct-19 13:56 39.772492 -107.009346 63 16020ft 246kts
27-Oct-19 13:57 39.802331 -106.922857 54 16086ft 269kts
27-Oct-19 13:58 39.842944 -106.837233 37 15965ft 280kts
27-Oct-19 13:59 39.912944 -106.852951 332 15927ft 284kts
27-Oct-19 14:00 39.982173 -106.902714 333 15992ft 284kts
27-Oct-19 14:01 40.051478 -106.955126 335 15999ft 283kts
27-Oct-19 14:02 40.119880 -107.004997 332 15979ft 286kts
27-Oct-19 14:03 40.188685 -107.056674 336 16048ft 277kts
27-Oct-19 14:04 40.254772 -107.109818 333 15831ft 272kts
27-Oct-19 14:05 40.322446 -107.154662 331 14624ft 272kts
27-Oct-19 14:06 40.385514 -107.209852 327 13564ft 270kts
27-Oct-19 14:07 40.454753 -107.255001 335 12527ft 278kts
27-Oct-19 14:08 40.518871 -107.312619 306 11582ft 284kts
27-Oct-19 14:09 40.547888 -107.402591 293 10524ft 246kts
27-Oct-19 14:10 40.571142 -107.484427 291 9804ft 238kts
27-Oct-19 14:11 40.592416 -107.565841 286 9714ft 219kts
27-Oct-19 14:12 40.590122 -107.641637 219 9660ft 229kts
27-Oct-19 14:13 40.536221 -107.637944 116 9798ft 222kts
27-Oct-19 14:14 40.540420 -107.558584 75 9997ft 215kts
27-Oct-19 14:16 40.568737 -107.495633 58 9750ft 194kts
27-Oct-19 14:17 40.551753 -107.430403 107 8829ft 189kts
27-Oct-19 14:18 40.530473 -107.364431 105 8635ft 186kts
27-Oct-19 14:19 40.512182 -107.310464 110 7873ft 148kts
27-Oct-19 14:20 40.496367 -107.262733 113 7163ft 147kts
27-Oct-19 14:21 40.481864 -107.219778 113 6592ft 49kts
27-Oct-19 14:22 40.480883 -107.213492 317 6588ft 8kts

Navigation Log

Ident Type
Flight plan parsing failed, navigation log unavailable